Terminal Aerodrome Forecast
Issued by NWS Bismarck, ND

Home | Current Version | Previous Version | Graphics & Text | Print | Product List | Glossary On
Versions: 1 2 3 4 5 6 7 8 9 10 11 12 13 14 15
949
FTUS43 KBIS 272323
TAFISN
TAF
KISN 272323Z 2800/2824 32013KT P6SM SCT090 BKN150
     FM280600 33009KT P6SM SCT250
     FM281800 30007KT P6SM FEW200
     FM282100 27007KT P6SM FEW080 FEW200=

USA.gov is the U.S. government's official web portal to all federal, state and local government web resources and services.